Bridgeport, CT

5:06 PM EDT on April 19, 2015 (GMT -0400)
Waterbury-Oxford | | Change Station
CLOSE
Current Station
Airport
Location: Oxford,
Elevation: 725 ft
Nearby Weather Stations
Active Advisory: Coastal Flood Statement

Elev 725 ft 41.47 °N, 73.14 °W | Updated 1 hour ago

Clear
Clear
57 °F
Feels Like 57 °F
N
6
Wind Variable Wind from South

Today
High -- | Low -- °F
--% Chance of Precip.
Yesterday
High -- | Low -- °F
Precip. -- in
6:07 AM 7:36 PM
New Moon, 2% visible
Pressure 30.19 in
Visibility 10.0 miles
Clouds Mostly Cloudy 25000 ft
Dew Point 32 °F
Humidity 38%
Rainfall 0.00 in
Snow Depth Not available.
UV 3 out of 12
Pollen 10.90 out of 12
Air Quality Not available.
Flu Activity Widespread
METAR KOXC 191950Z 19005KT 10SM BKN250 14/00 A3019

More Conditions Fewer Conditions

Pressure 30.19 in
Visibility 10.0 miles
Clouds Mostly Cloudy 25000 ft
Dew Point 32 °F
Humidity 38%
Rainfall 0.00 in
Snow Depth Not available.
UV 3 out of 12
Pollen 10.90 out of 12
Air Quality Not available.
Flu Activity Widespread
METAR KOXC 191950Z 19005KT 10SM BKN250 14/00 A3019

More Conditions Fewer Conditions

10-Day Weather Forecast

Almanac

Astronomy

Apr. 19, 2015 Rise Set
Actual Time
Civil Twilight
Nautical Twilight
Astronomical Twilight
Moon
Length of Visible Light
Length of Day
Tomorrow will be .
, % of the Moon is Illuminated

Today's Extremes

State Highs State Lows

Community

WunderPhotos

Upload Photos

1,814,980 photos uploaded!

WunderBlogs® & News

Nearby

Air Quality

  Air Quality AQ Index Pollutant
Not available.

Snow Depth

Station Depth Elevation

Earthquake Activity

City Distance Mag. Time & Date
Minimum magnitude displayed is 2.5.

Coastal Water Temperatures

Place Temperature

Stations

Nearby Weather Stations

Station Location Temp. Windchill Dew Point Humidity Wind Precip. Elev Updated Type
                   
Coastal Flood Statement
Statement as of 3:37 PM EDT on April 19, 2015

... Localized minor coastal flooding...

* locations... the coastlines along the western portion of the
Long Island Sound.

* Tidal departures... around 1/2 to 1 ft above astronomical tides.

* Timing... around the time of high tide tonight and early Monday
afternoon.

* Impacts... localized flooding of the most vulnerable shore roads
and/or basements.